sensor_id;sensor_type;location;lat;lon;timestamp;temperature;humidity
52439;DHT22;38359;53.150;6.504;2023-02-16T00:09:27;6.00;99.90
52439;DHT22;38359;53.150;6.504;2023-02-16T00:19:53;5.80;99.90
52439;DHT22;38359;53.150;6.504;2023-02-16T00:30:20;5.70;99.90
52439;DHT22;38359;53.150;6.504;2023-02-16T00:40:47;5.70;99.90
52439;DHT22;38359;53.150;6.504;2023-02-16T00:51:14;5.80;99.90
52439;DHT22;38359;53.150;6.504;2023-02-16T01:01:40;5.80;99.90
52439;DHT22;38359;53.150;6.504;2023-02-16T01:12:16;5.70;99.90
52439;DHT22;38359;53.150;6.504;2023-02-16T01:22:43;5.90;99.90
52439;DHT22;38359;53.150;6.504;2023-02-16T01:33:10;5.60;99.90
52439;DHT22;38359;53.150;6.504;2023-02-16T01:43:46;5.40;99.90
52439;DHT22;38359;53.150;6.504;2023-02-16T01:54:35;5.20;99.90
52439;DHT22;38359;53.150;6.504;2023-02-16T02:05:16;5.00;99.90
52439;DHT22;38359;53.150;6.504;2023-02-16T02:16:03;4.90;99.90
52439;DHT22;38359;53.150;6.504;2023-02-16T02:37:58;5.00;99.90
52439;DHT22;38359;53.150;6.504;2023-02-16T02:48:31;5.00;99.90
52439;DHT22;38359;53.150;6.504;2023-02-16T02:59:03;5.30;99.90
52439;DHT22;38359;53.150;6.504;2023-02-16T03:09:50;5.00;99.90
52439;DHT22;38359;53.150;6.504;2023-02-16T03:20:40;5.40;99.90
52439;DHT22;38359;53.150;6.504;2023-02-16T03:31:32;5.50;99.90
52439;DHT22;38359;53.150;6.504;2023-02-16T03:42:00;5.60;99.90
52439;DHT22;38359;53.150;6.504;2023-02-16T03:52:26;5.90;99.90
52439;DHT22;38359;53.150;6.504;2023-02-16T04:02:52;6.00;99.90
52439;DHT22;38359;53.150;6.504;2023-02-16T04:13:18;6.00;99.90
52439;DHT22;38359;53.150;6.504;2023-02-16T04:23:43;6.10;99.90
52439;DHT22;38359;53.150;6.504;2023-02-16T04:34:09;6.30;99.90
52439;DHT22;38359;53.150;6.504;2023-02-16T04:44:35;6.10;99.90
52439;DHT22;38359;53.150;6.504;2023-02-16T04:55:01;6.10;99.90
52439;DHT22;38359;53.150;6.504;2023-02-16T05:05:27;6.20;99.90
52439;DHT22;38359;53.150;6.504;2023-02-16T05:15:54;6.50;99.90
52439;DHT22;38359;53.150;6.504;2023-02-16T05:26:20;6.20;99.90
52439;DHT22;38359;53.150;6.504;2023-02-16T05:36:46;6.30;99.90
52439;DHT22;38359;53.150;6.504;2023-02-16T05:47:12;6.20;99.90
52439;DHT22;38359;53.150;6.504;2023-02-16T05:57:38;6.10;99.90
52439;DHT22;38359;53.150;6.504;2023-02-16T06:08:04;6.30;99.90
52439;DHT22;38359;53.150;6.504;2023-02-16T06:18:29;6.30;99.90
52439;DHT22;38359;53.150;6.504;2023-02-16T06:28:56;6.30;99.90
52439;DHT22;38359;53.150;6.504;2023-02-16T06:39:22;6.40;99.90
52439;DHT22;38359;53.150;6.504;2023-02-16T06:49:47;6.50;99.90
52439;DHT22;38359;53.150;6.504;2023-02-16T07:00:14;6.30;99.90
52439;DHT22;38359;53.150;6.504;2023-02-16T07:10:44;6.60;99.90
52439;DHT22;38359;53.150;6.504;2023-02-16T07:21:11;6.50;99.90
52439;DHT22;38359;53.150;6.504;2023-02-16T07:31:37;6.70;99.90
52439;DHT22;38359;53.150;6.504;2023-02-16T07:42:03;6.70;99.90
52439;DHT22;38359;53.150;6.504;2023-02-16T07:52:29;7.20;99.90
52439;DHT22;38359;53.150;6.504;2023-02-16T08:02:55;6.70;99.90
52439;DHT22;38359;53.150;6.504;2023-02-16T08:13:21;7.00;99.90
52439;DHT22;38359;53.150;6.504;2023-02-16T08:24:01;7.10;99.90
52439;DHT22;38359;53.150;6.504;2023-02-16T08:34:29;7.00;99.90
52439;DHT22;38359;53.150;6.504;2023-02-16T08:44:55;7.10;99.90
52439;DHT22;38359;53.150;6.504;2023-02-16T08:55:21;7.50;99.90
52439;DHT22;38359;53.150;6.504;2023-02-16T09:05:48;7.50;99.90
52439;DHT22;38359;53.150;6.504;2023-02-16T09:16:18;7.40;99.90
52439;DHT22;38359;53.150;6.504;2023-02-16T09:26:46;7.60;99.90
52439;DHT22;38359;53.150;6.504;2023-02-16T09:37:14;7.80;99.90
52439;DHT22;38359;53.150;6.504;2023-02-16T09:47:42;7.90;99.90
52439;DHT22;38359;53.150;6.504;2023-02-16T09:58:53;8.10;99.90
52439;DHT22;38359;53.150;6.504;2023-02-16T10:09:20;8.20;99.90
52439;DHT22;38359;53.150;6.504;2023-02-16T10:20:03;8.30;99.90
52439;DHT22;38359;53.150;6.504;2023-02-16T10:30:34;8.30;99.90
52439;DHT22;38359;53.150;6.504;2023-02-16T10:41:25;8.40;99.90
52439;DHT22;38359;53.150;6.504;2023-02-16T10:51:56;8.30;99.90
52439;DHT22;38359;53.150;6.504;2023-02-16T11:02:29;8.30;99.90
52439;DHT22;38359;53.150;6.504;2023-02-16T11:13:00;8.30;99.90
52439;DHT22;38359;53.150;6.504;2023-02-16T11:23:29;8.60;99.90
52439;DHT22;38359;53.150;6.504;2023-02-16T11:34:05;8.50;99.90
52439;DHT22;38359;53.150;6.504;2023-02-16T11:44:53;8.60;99.90
52439;DHT22;38359;53.150;6.504;2023-02-16T11:55:31;8.70;99.90
52439;DHT22;38359;53.150;6.504;2023-02-16T12:06:04;8.80;99.90
52439;DHT22;38359;53.150;6.504;2023-02-16T12:48:59;9.40;99.90
52439;DHT22;38359;53.150;6.504;2023-02-16T13:00:11;9.90;99.90
52439;DHT22;38359;53.150;6.504;2023-02-16T13:43:43;10.60;99.90
52439;DHT22;38359;53.150;6.504;2023-02-16T13:54:37;10.80;99.90
52439;DHT22;38359;53.150;6.504;2023-02-16T14:05:09;10.70;99.90
52439;DHT22;38359;53.150;6.504;2023-02-16T14:15:49;10.80;99.90
52439;DHT22;38359;53.150;6.504;2023-02-16T14:26:16;10.60;99.90
52439;DHT22;38359;53.150;6.504;2023-02-16T14:47:59;10.50;99.90
52439;DHT22;38359;53.150;6.504;2023-02-16T15:09:30;10.30;99.90
52439;DHT22;38359;53.150;6.504;2023-02-16T15:20:16;10.10;99.90
52439;DHT22;38359;53.150;6.504;2023-02-16T15:30:49;9.80;99.90
52439;DHT22;38359;53.150;6.504;2023-02-16T15:41:34;9.60;99.90
52439;DHT22;38359;53.150;6.504;2023-02-16T15:52:01;9.30;99.90
52439;DHT22;38359;53.150;6.504;2023-02-16T16:02:41;9.40;99.90
52439;DHT22;38359;53.150;6.504;2023-02-16T16:13:16;9.30;99.90
52439;DHT22;38359;53.150;6.504;2023-02-16T16:24:07;9.30;99.90
52439;DHT22;38359;53.150;6.504;2023-02-16T16:34:38;9.20;99.90
52439;DHT22;38359;53.150;6.504;2023-02-16T16:55:45;9.20;99.90
52439;DHT22;38359;53.150;6.504;2023-02-16T17:06:11;9.20;99.90
52439;DHT22;38359;53.150;6.504;2023-02-16T17:16:44;9.20;99.90
52439;DHT22;38359;53.150;6.504;2023-02-16T17:27:12;8.90;99.90
52439;DHT22;38359;53.150;6.504;2023-02-16T17:37:38;8.90;99.90
52439;DHT22;38359;53.150;6.504;2023-02-16T17:48:04;8.90;99.90
52439;DHT22;38359;53.150;6.504;2023-02-16T17:58:30;9.30;99.90
52439;DHT22;38359;53.150;6.504;2023-02-16T18:08:55;9.00;99.90
52439;DHT22;38359;53.150;6.504;2023-02-16T18:19:21;9.50;99.90
52439;DHT22;38359;53.150;6.504;2023-02-16T18:29:47;9.40;99.90
52439;DHT22;38359;53.150;6.504;2023-02-16T18:40:16;9.40;99.90
52439;DHT22;38359;53.150;6.504;2023-02-16T18:50:43;9.20;99.90
52439;DHT22;38359;53.150;6.504;2023-02-16T19:01:14;9.50;99.90
52439;DHT22;38359;53.150;6.504;2023-02-16T19:11:46;9.80;99.90
52439;DHT22;38359;53.150;6.504;2023-02-16T19:22:12;9.40;99.90
52439;DHT22;38359;53.150;6.504;2023-02-16T19:32:39;9.90;99.90
52439;DHT22;38359;53.150;6.504;2023-02-16T19:43:05;10.10;99.90
52439;DHT22;38359;53.150;6.504;2023-02-16T19:53:32;10.00;99.90
52439;DHT22;38359;53.150;6.504;2023-02-16T20:03:59;9.90;99.90
52439;DHT22;38359;53.150;6.504;2023-02-16T20:14:26;9.90;99.90
52439;DHT22;38359;53.150;6.504;2023-02-16T20:24:52;10.10;99.90
52439;DHT22;38359;53.150;6.504;2023-02-16T20:35:18;10.20;99.90
52439;DHT22;38359;53.150;6.504;2023-02-16T20:45:43;10.50;99.90
52439;DHT22;38359;53.150;6.504;2023-02-16T20:56:21;10.10;99.90
52439;DHT22;38359;53.150;6.504;2023-02-16T21:06:48;10.50;99.90
52439;DHT22;38359;53.150;6.504;2023-02-16T21:17:14;10.10;99.90
52439;DHT22;38359;53.150;6.504;2023-02-16T21:27:40;10.70;99.90
52439;DHT22;38359;53.150;6.504;2023-02-16T21:38:06;10.70;99.90
52439;DHT22;38359;53.150;6.504;2023-02-16T21:48:32;10.20;99.90
52439;DHT22;38359;53.150;6.504;2023-02-16T21:59:12;10.70;99.90
52439;DHT22;38359;53.150;6.504;2023-02-16T22:09:40;11.40;99.90
52439;DHT22;38359;53.150;6.504;2023-02-16T22:20:06;10.30;99.90
52439;DHT22;38359;53.150;6.504;2023-02-16T22:30:32;10.50;99.90
52439;DHT22;38359;53.150;6.504;2023-02-16T22:40:58;11.00;99.90
52439;DHT22;38359;53.150;6.504;2023-02-16T22:51:29;11.10;99.90
52439;DHT22;38359;53.150;6.504;2023-02-16T23:01:55;11.20;99.90
52439;DHT22;38359;53.150;6.504;2023-02-16T23:12:21;10.60;99.90
52439;DHT22;38359;53.150;6.504;2023-02-16T23:22:47;11.10;99.90
52439;DHT22;38359;53.150;6.504;2023-02-16T23:33:13;12.00;99.90
52439;DHT22;38359;53.150;6.504;2023-02-16T23:43:39;12.10;99.90
52439;DHT22;38359;53.150;6.504;2023-02-16T23:54:05;11.90;99.90
